sensor_id;sensor_type;location;lat;lon;timestamp;temperature;humidity
56424;DHT22;42329;43.516;3.684;2022-10-31T12:06:32;21.60;99.90
56424;DHT22;42329;43.516;3.684;2022-10-31T12:09:00;21.70;99.90
56424;DHT22;42329;43.516;3.684;2022-10-31T12:11:48;21.70;99.90
56424;DHT22;42329;43.516;3.684;2022-10-31T12:14:26;21.70;99.90
56424;DHT22;42329;43.516;3.684;2022-10-31T12:17:00;21.70;99.90
56424;DHT22;42329;43.516;3.684;2022-10-31T12:19:37;21.70;99.90
56424;DHT22;42329;43.516;3.684;2022-10-31T12:22:13;21.70;99.90
56424;DHT22;42329;43.516;3.684;2022-10-31T12:24:54;21.80;99.90
56424;DHT22;42329;43.516;3.684;2022-10-31T12:27:30;21.80;99.90
56424;DHT22;42329;43.516;3.684;2022-10-31T12:30:13;21.90;99.90
56424;DHT22;42329;43.516;3.684;2022-10-31T12:35:43;22.00;99.90
56424;DHT22;42329;43.516;3.684;2022-10-31T12:38:25;22.00;99.90
56424;DHT22;42329;43.516;3.684;2022-10-31T14:43:37;21.70;99.90
56424;DHT22;42329;43.516;3.684;2022-10-31T14:46:14;21.70;99.90
56424;DHT22;42329;43.516;3.684;2022-10-31T14:48:56;21.60;99.90
56424;DHT22;42329;43.516;3.684;2022-10-31T14:51:33;21.60;99.90
56424;DHT22;42329;43.516;3.684;2022-10-31T14:54:02;21.60;99.90
56424;DHT22;42329;43.516;3.684;2022-10-31T14:56:37;21.60;99.90
56424;DHT22;42329;43.516;3.684;2022-10-31T14:59:13;21.60;99.90
56424;DHT22;42329;43.516;3.684;2022-10-31T15:01:56;21.60;99.90
56424;DHT22;42329;43.516;3.684;2022-10-31T15:04:24;21.60;99.90
56424;DHT22;42329;43.516;3.684;2022-10-31T15:06:57;21.60;99.90
56424;DHT22;42329;43.516;3.684;2022-10-31T15:09:29;21.60;99.90
56424;DHT22;42329;43.516;3.684;2022-10-31T15:11:58;21.50;99.90
56424;DHT22;42329;43.516;3.684;2022-10-31T15:14:29;21.50;99.90
56424;DHT22;42329;43.516;3.684;2022-10-31T15:16:58;21.50;99.90
56424;DHT22;42329;43.516;3.684;2022-10-31T15:19:28;21.50;99.90
56424;DHT22;42329;43.516;3.684;2022-10-31T15:21:57;21.50;99.90
56424;DHT22;42329;43.516;3.684;2022-10-31T15:24:29;21.40;99.90
56424;DHT22;42329;43.516;3.684;2022-10-31T15:26:58;21.50;99.90
56424;DHT22;42329;43.516;3.684;2022-10-31T15:29:27;21.50;99.90
56424;DHT22;42329;43.516;3.684;2022-10-31T15:34:28;21.50;99.90
56424;DHT22;42329;43.516;3.684;2022-10-31T15:36:57;21.40;99.90
56424;DHT22;42329;43.516;3.684;2022-10-31T15:39:24;21.40;99.90
56424;DHT22;42329;43.516;3.684;2022-10-31T15:41:54;21.40;99.90
56424;DHT22;42329;43.516;3.684;2022-10-31T15:44:28;21.40;99.90
56424;DHT22;42329;43.516;3.684;2022-10-31T16:41:49;21.20;99.90
56424;DHT22;42329;43.516;3.684;2022-10-31T16:44:19;21.20;99.90
56424;DHT22;42329;43.516;3.684;2022-10-31T16:46:48;21.20;99.90
56424;DHT22;42329;43.516;3.684;2022-10-31T16:49:15;21.20;99.90
56424;DHT22;42329;43.516;3.684;2022-10-31T16:51:43;21.20;99.90
56424;DHT22;42329;43.516;3.684;2022-10-31T16:54:11;21.20;99.90
56424;DHT22;42329;43.516;3.684;2022-10-31T16:56:38;21.20;99.90
56424;DHT22;42329;43.516;3.684;2022-10-31T16:59:09;21.20;99.90
56424;DHT22;42329;43.516;3.684;2022-10-31T17:01:40;21.20;99.90
56424;DHT22;42329;43.516;3.684;2022-10-31T17:04:11;21.20;99.90
56424;DHT22;42329;43.516;3.684;2022-10-31T17:06:43;21.20;99.90
56424;DHT22;42329;43.516;3.684;2022-10-31T17:09:11;21.20;99.90
56424;DHT22;42329;43.516;3.684;2022-10-31T17:11:41;21.10;99.90
56424;DHT22;42329;43.516;3.684;2022-10-31T17:14:11;21.20;99.90
56424;DHT22;42329;43.516;3.684;2022-10-31T17:16:38;21.10;99.90
56424;DHT22;42329;43.516;3.684;2022-10-31T17:19:07;21.10;99.90
56424;DHT22;42329;43.516;3.684;2022-10-31T17:21:36;21.10;99.90
56424;DHT22;42329;43.516;3.684;2022-10-31T17:24:08;21.10;99.90
